Time;durP1;ratioP1;P1;durP2;ratioP2;P2;SDS_P1;SDS_P2;PMS_P1;PMS_P2;Temp;Humidity;BMP_temperature;BMP_pressure;BME280_temperature;BME280_humidity;BME280_pressure;Samples;Min_cycle;Max_cycle;Signal;HPM_P1;HPM_P2
2023/05/11 00:02:12;;;;;;;1.20;0.17;;;;;;;12.43;100.00;100661.47;5115637;27;20107;-51
2023/05/11 00:04:37;;;;;;;4.43;0.20;;;;;;;12.31;100.00;100658.53;5105040;27;20038;-50
2023/05/11 00:07:03;;;;;;;3.13;0.25;;;;;;;12.14;100.00;100659.91;5111775;27;20020;-52
2023/05/11 00:09:28;;;;;;;5.97;1.17;;;;;;;11.97;100.00;100662.06;5114653;27;20524;-50
2023/05/11 00:11:53;;;;;;;3.40;0.30;;;;;;;11.63;100.00;100663.63;5112968;27;20031;-52
2023/05/11 00:14:19;;;;;;;6.82;0.63;;;;;;;11.51;100.00;100660.72;5112726;27;20497;-49
2023/05/11 00:16:44;;;;;;;2.88;0.10;;;;;;;11.36;100.00;100662.63;5125869;27;20031;-50
2023/05/11 00:19:10;;;;;;;3.28;0.10;;;;;;;11.40;100.00;100660.41;5114773;27;20150;-52
2023/05/11 00:21:35;;;;;;;3.83;0.20;;;;;;;11.31;100.00;100667.69;5114966;27;20039;-51
2023/05/11 00:24:00;;;;;;;2.60;0.90;;;;;;;11.21;100.00;100668.00;5118538;27;20479;-52
2023/05/11 00:26:26;;;;;;;3.08;0.20;;;;;;;11.22;100.00;100668.81;5112436;27;20110;-48
2023/05/11 00:28:51;;;;;;;0.88;0.10;;;;;;;11.17;100.00;100673.88;5119671;27;20035;-47
2023/05/11 00:31:16;;;;;;;5.03;0.90;;;;;;;11.14;100.00;100675.91;5120874;27;20048;-50
2023/05/11 00:33:42;;;;;;;0.50;0.10;;;;;;;11.18;100.00;100670.19;5117231;27;20034;-49
2023/05/11 00:36:07;;;;;;;2.10;0.38;;;;;;;11.14;100.00;100662.63;5120183;27;20023;-55
2023/05/11 00:38:33;;;;;;;1.27;0.03;;;;;;;11.17;100.00;100663.25;5112114;27;20384;-54
2023/05/11 00:40:58;;;;;;;0.20;0.10;;;;;;;11.09;100.00;100665.03;5113561;27;20098;-49
2023/05/11 00:43:23;;;;;;;4.65;0.40;;;;;;;11.17;100.00;100665.91;5131682;27;20035;-56
2023/05/11 00:45:51;;;;;;;0.50;0.00;;;;;;;11.18;100.00;100662.25;5111729;27;20129;-54
2023/05/11 00:48:16;;;;;;;2.90;1.05;;;;;;;11.13;100.00;100668.13;5115055;27;20038;-57
2023/05/11 00:50:42;;;;;;;5.60;0.52;;;;;;;11.14;100.00;100657.31;5110441;27;20599;-53
2023/05/11 00:53:07;;;;;;;4.70;0.28;;;;;;;11.12;100.00;100662.00;5110915;27;20073;-48
2023/05/11 00:55:33;;;;;;;0.38;0.20;;;;;;;11.14;100.00;100657.31;5119025;27;20035;-55
2023/05/11 00:57:59;;;;;;;4.95;0.45;;;;;;;11.14;100.00;100662.63;5110265;27;20035;-49
2023/05/11 01:00:25;;;;;;;2.40;0.32;;;;;;;11.18;100.00;100667.53;5114493;27;20034;-52
2023/05/11 01:02:51;;;;;;;0.20;0.03;;;;;;;11.20;100.00;100654.91;5112782;27;20028;-47
2023/05/11 01:05:16;;;;;;;2.00;0.10;;;;;;;11.23;100.00;100663.34;5112339;27;20526;-52
2023/05/11 01:08:06;;;;;;;0.38;0.00;;;;;;;11.31;100.00;100675.66;5115318;27;20021;-48
2023/05/11 01:10:37;;;;;;;1.58;0.10;;;;;;;11.28;100.00;100670.69;5112255;27;20031;-53
2023/05/11 01:13:31;;;;;;;5.93;0.85;;;;;;;11.33;100.00;100668.28;5114612;27;20031;-52
2023/05/11 01:15:57;;;;;;;0.15;0.13;;;;;;;11.33;100.00;100670.94;5111841;27;20138;-49
2023/05/11 01:18:31;;;;;;;3.55;0.65;;;;;;;11.33;100.00;100670.94;5124647;27;20099;-51
2023/05/11 01:21:01;;;;;;;7.20;0.43;;;;;;;11.35;100.00;100664.44;5112574;27;20093;-52
2023/05/11 01:23:43;;;;;;;5.47;1.13;;;;;;;11.25;100.00;100671.09;5120533;27;20031;-48
2023/05/11 01:26:46;;;;;;;4.40;1.15;;;;;;;11.35;100.00;100667.09;5118371;27;20304;-49
2023/05/11 01:29:30;;;;;;;1.30;0.20;;;;;;;11.37;100.00;100671.41;5115100;27;20093;-51
2023/05/11 01:31:58;;;;;;;0.47;0.10;;;;;;;11.33;100.00;100668.28;5116918;27;20023;-48
2023/05/11 01:34:27;;;;;;;0.80;0.32;;;;;;;11.35;100.00;100666.28;5120929;27;20030;-50
2023/05/11 01:37:08;;;;;;;1.13;0.25;;;;;;;11.37;100.00;100666.91;5124616;27;20259;-49
2023/05/11 01:39:41;;;;;;;1.27;0.65;;;;;;;11.28;100.00;100665.41;5121066;27;20023;-50
2023/05/11 01:42:09;;;;;;;3.33;0.80;;;;;;;11.28;100.00;100665.41;5111506;27;20035;-52
2023/05/11 01:44:41;;;;;;;2.78;1.20;;;;;;;11.25;100.00;100673.75;5118461;27;20036;-50
2023/05/11 01:47:08;;;;;;;1.75;0.20;;;;;;;11.20;100.00;100671.66;5120475;27;20026;-50
2023/05/11 01:49:37;;;;;;;0.98;0.32;;;;;;;11.16;100.00;100666.94;5120516;27;20034;-53
2023/05/11 01:52:05;;;;;;;0.65;0.15;;;;;;;11.09;100.00;100670.34;5121754;27;20027;-50
2023/05/11 01:54:32;;;;;;;0.93;0.30;;;;;;;11.15;100.00;100668.75;5118404;27;20617;-49
2023/05/11 01:57:00;;;;;;;11.55;1.00;;;;;;;11.22;100.00;100674.94;5119025;27;20087;-53
2023/05/11 01:59:27;;;;;;;2.63;0.25;;;;;;;11.28;100.00;100678.66;5116714;27;20035;-48
2023/05/11 02:01:53;;;;;;;0.85;0.10;;;;;;;11.33;100.00;100674.44;5121086;27;20073;-48
2023/05/11 02:04:20;;;;;;;2.70;0.30;;;;;;;11.41;100.00;100678.81;5116480;27;20031;-52
2023/05/11 02:06:47;;;;;;;1.08;0.25;;;;;;;11.43;100.00;100683.91;5123785;27;20023;-53
2023/05/11 02:09:15;;;;;;;4.63;0.10;;;;;;;11.35;100.00;100684.88;5120376;27;20039;-49
2023/05/11 02:11:43;;;;;;;0.50;0.10;;;;;;;11.34;100.00;100672.59;5118923;27;20042;-50
2023/05/11 02:14:10;;;;;;;2.85;0.25;;;;;;;11.45;100.00;100680.03;5124804;27;20034;-51
2023/05/11 02:16:37;;;;;;;2.25;0.47;;;;;;;11.50;100.00;100682.13;5118634;27;20037;-52
2023/05/11 02:19:06;;;;;;;1.48;1.23;;;;;;;11.56;100.00;100682.19;5118726;27;20030;-50
2023/05/11 02:21:32;;;;;;;2.22;0.40;;;;;;;11.61;100.00;100688.75;5116837;27;20027;-52
2023/05/11 02:24:00;;;;;;;4.95;0.28;;;;;;;11.62;100.00;100685.09;5120388;27;20020;-50
2023/05/11 02:26:26;;;;;;;3.15;0.03;;;;;;;11.64;100.00;100683.03;5113281;27;20464;-51
2023/05/11 02:28:51;;;;;;;1.52;0.10;;;;;;;11.64;100.00;100691.84;5120061;27;20122;-52
2023/05/11 02:31:23;;;;;;;0.85;0.80;;;;;;;11.70;100.00;100692.91;5114291;27;20054;-53
2023/05/11 02:33:51;;;;;;;1.10;0.25;;;;;;;11.73;100.00;100696.00;5119747;27;20506;-49
2023/05/11 02:36:21;;;;;;;0.60;0.60;;;;;;;11.74;100.00;100697.63;5112509;27;20040;-51
2023/05/11 02:38:49;;;;;;;6.95;0.08;;;;;;;11.79;100.00;100703.19;5121483;27;20400;-48
2023/05/11 02:41:20;;;;;;;2.97;0.65;;;;;;;11.76;100.00;100700.09;5119119;27;20039;-50
2023/05/11 02:43:49;;;;;;;3.60;0.35;;;;;;;11.77;100.00;100697.25;5121877;27;20046;-50
2023/05/11 02:46:19;;;;;;;2.28;0.25;;;;;;;11.79;100.00;100702.38;5118422;27;20458;-49
2023/05/11 02:48:50;;;;;;;2.92;1.60;;;;;;;11.81;100.00;100697.69;5126419;27;21083;-53
2023/05/11 02:51:17;;;;;;;6.05;0.75;;;;;;;11.89;100.00;100705.53;5104358;27;20871;-48
2023/05/11 02:53:44;;;;;;;7.90;2.10;;;;;;;11.86;100.00;100697.13;5118846;27;20090;-50
2023/05/11 02:56:10;;;;;;;1.05;0.43;;;;;;;11.79;100.00;100700.53;5111856;27;20079;-53
2023/05/11 02:58:36;;;;;;;1.38;0.70;;;;;;;11.70;100.00;100707.00;5120276;27;20022;-50
2023/05/11 03:01:05;;;;;;;3.55;0.73;;;;;;;11.68;100.00;100705.56;5116890;27;21579;-52
2023/05/11 03:03:30;;;;;;;1.70;0.45;;;;;;;11.61;100.00;100702.03;5116290;27;20433;-49
2023/05/11 03:05:55;;;;;;;3.30;0.38;;;;;;;11.56;100.00;100707.91;5119347;27;20036;-53
2023/05/11 03:08:21;;;;;;;3.83;0.13;;;;;;;11.49;100.00;100697.25;5112960;27;20039;-49
2023/05/11 03:10:46;;;;;;;4.53;0.20;;;;;;;11.45;100.00;100711.91;5118814;27;20026;-50
2023/05/11 03:13:12;;;;;;;3.55;0.32;;;;;;;11.45;100.00;100706.59;5120159;27;20023;-52
2023/05/11 03:15:38;;;;;;;2.80;0.10;;;;;;;11.46;100.00;100705.59;5114436;27;20039;-51
2023/05/11 03:18:05;;;;;;;6.07;0.70;;;;;;;11.41;100.00;100710.66;5112444;27;20387;-48
2023/05/11 03:20:34;;;;;;;5.05;0.80;;;;;;;11.38;100.00;100707.56;5101460;27;20031;-50
2023/05/11 03:23:00;;;;;;;3.60;0.20;;;;;;;11.44;100.00;100706.81;5112870;27;20113;-53
2023/05/11 03:25:27;;;;;;;2.90;0.25;;;;;;;11.44;100.00;100710.28;5115210;27;20028;-54
2023/05/11 03:27:54;;;;;;;2.90;0.57;;;;;;;11.49;100.00;100707.06;5113615;27;20445;-51
2023/05/11 03:30:22;;;;;;;6.15;0.88;;;;;;;11.47;100.00;100701.91;5114053;27;20113;-49
2023/05/11 03:32:48;;;;;;;8.85;1.13;;;;;;;11.45;100.00;100703.94;5122111;27;20036;-49
2023/05/11 03:35:13;;;;;;;3.08;0.57;;;;;;;11.39;100.00;100701.25;5111364;27;20041;-50
2023/05/11 03:37:39;;;;;;;5.68;1.35;;;;;;;11.34;100.00;100699.16;5118119;27;20368;-52
2023/05/11 03:40:06;;;;;;;6.65;1.45;;;;;;;11.30;100.00;100701.34;5124369;27;20031;-49
2023/05/11 03:42:34;;;;;;;2.83;0.40;;;;;;;11.30;100.00;100703.19;5115910;27;20042;-49
2023/05/11 03:45:01;;;;;;;6.40;0.73;;;;;;;11.32;100.00;100709.13;5111513;27;20039;-52
2023/05/11 03:47:28;;;;;;;1.02;0.20;;;;;;;11.31;100.00;100704.84;5119736;27;20060;-51
2023/05/11 03:49:57;;;;;;;3.20;1.13;;;;;;;11.33;100.00;100701.00;5120427;27;20038;-48
2023/05/11 03:52:23;;;;;;;7.32;0.95;;;;;;;11.35;100.00;100712.22;5118446;27;20024;-49
2023/05/11 03:54:48;;;;;;;2.60;0.43;;;;;;;11.42;100.00;100701.69;5123330;27;20369;-50
2023/05/11 03:57:14;;;;;;;10.05;0.90;;;;;;;11.44;100.00;100699.66;5114398;27;20049;-50
2023/05/11 03:59:40;;;;;;;1.58;0.57;;;;;;;11.45;100.00;100700.47;5113378;27;20031;-49
2023/05/11 04:02:06;;;;;;;0.70;0.10;;;;;;;11.42;100.00;100700.84;5112394;27;20027;-53
2023/05/11 04:04:31;;;;;;;1.75;0.60;;;;;;;11.40;100.00;100703.69;5114470;27;20178;-52
2023/05/11 04:06:57;;;;;;;14.05;4.40;;;;;;;11.33;100.00;100708.13;5119417;27;20065;-50
2023/05/11 04:09:23;;;;;;;3.17;0.75;;;;;;;11.27;100.00;100700.91;5120001;27;20465;-53
2023/05/11 04:11:49;;;;;;;1.38;0.45;;;;;;;11.18;100.00;100708.19;5120083;27;20360;-51
2023/05/11 04:14:16;;;;;;;1.15;0.22;;;;;;;11.13;100.00;100710.59;5118784;27;20506;-52
2023/05/11 04:16:41;;;;;;;3.22;0.43;;;;;;;11.13;100.00;100702.63;5123860;27;20066;-53
2023/05/11 04:19:07;;;;;;;1.58;0.90;;;;;;;11.13;100.00;100711.41;5116271;27;20521;-49
2023/05/11 04:21:32;;;;;;;2.78;0.28;;;;;;;11.10;100.00;100713.59;5113411;27;20065;-50
2023/05/11 04:23:57;;;;;;;3.17;0.28;;;;;;;11.04;100.00;100709.88;5119921;27;20035;-52
2023/05/11 04:26:23;;;;;;;1.98;0.45;;;;;;;11.01;100.00;100710.25;5121894;27;20027;-51
2023/05/11 04:28:48;;;;;;;8.68;0.75;;;;;;;10.91;100.00;100715.88;5109498;27;20515;-49
2023/05/11 04:31:14;;;;;;;2.92;0.50;;;;;;;10.90;100.00;100710.75;5118821;27;20366;-47
2023/05/11 04:33:39;;;;;;;3.92;0.43;;;;;;;10.92;100.00;100706.09;5115588;27;20399;-51
2023/05/11 04:36:05;;;;;;;3.63;0.40;;;;;;;10.87;100.00;100713.81;5115828;27;20024;-50
2023/05/11 04:38:30;;;;;;;2.83;0.10;;;;;;;10.86;100.00;100712.13;5114315;27;20114;-50
2023/05/11 04:40:55;;;;;;;0.70;0.70;;;;;;;10.83;100.00;100710.69;5118282;27;20027;-49
2023/05/11 04:43:21;;;;;;;4.85;1.35;;;;;;;10.82;100.00;100705.56;5111654;27;20376;-52
2023/05/11 04:45:50;;;;;;;1.10;0.20;;;;;;;10.81;100.00;100715.34;5119083;27;20039;-49
2023/05/11 04:48:15;;;;;;;4.95;0.68;;;;;;;10.87;100.00;100717.25;5116321;27;20174;-48
2023/05/11 04:50:41;;;;;;;1.23;0.50;;;;;;;10.84;100.00;100722.94;5112222;27;20023;-52
2023/05/11 04:53:06;;;;;;;2.05;0.30;;;;;;;10.83;100.00;100721.28;5117752;27;20035;-53
2023/05/11 04:55:32;;;;;;;3.20;0.40;;;;;;;10.79;100.00;100717.38;5120323;27;20053;-51
2023/05/11 04:57:57;;;;;;;1.65;0.82;;;;;;;10.74;100.00;100724.22;5122324;27;20039;-47
2023/05/11 05:00:23;;;;;;;0.77;0.47;;;;;;;10.69;100.00;100717.66;5111620;27;20019;-54
2023/05/11 05:02:49;;;;;;;4.07;1.02;;;;;;;10.66;100.00;100726.00;5114708;27;20603;-48
2023/05/11 05:05:15;;;;;;;1.80;0.60;;;;;;;10.66;100.00;100728.66;5121994;27;20569;-49
2023/05/11 05:07:40;;;;;;;1.13;0.40;;;;;;;10.70;100.00;100724.59;5113622;27;20027;-51
2023/05/11 05:10:07;;;;;;;4.35;0.90;;;;;;;10.76;100.00;100727.53;5127839;27;20220;-49
2023/05/11 05:12:34;;;;;;;5.35;0.80;;;;;;;10.76;100.00;100738.13;5119485;27;20440;-49
2023/05/11 05:15:00;;;;;;;1.13;0.55;;;;;;;10.77;100.00;100729.19;5109205;27;20063;-52
2023/05/11 05:17:25;;;;;;;3.75;1.23;;;;;;;10.73;100.00;100733.19;5109373;27;20090;-48
2023/05/11 05:19:50;;;;;;;4.30;0.63;;;;;;;10.77;100.00;100737.16;5117520;27;20035;-51
2023/05/11 05:22:16;;;;;;;2.30;0.20;;;;;;;10.82;100.00;100737.41;5114667;27;20035;-50
2023/05/11 05:24:41;;;;;;;4.28;0.73;;;;;;;10.80;100.00;100737.59;5116304;27;20028;-54
2023/05/11 05:27:06;;;;;;;1.33;1.13;;;;;;;10.87;100.00;100742.97;5114514;27;20038;-53
2023/05/11 05:29:31;;;;;;;4.18;1.13;;;;;;;10.88;100.00;100741.97;5120022;27;20575;-52
2023/05/11 05:31:58;;;;;;;1.50;0.40;;;;;;;10.86;100.00;100739.47;5122654;27;20043;-48
2023/05/11 05:34:24;;;;;;;0.85;0.47;;;;;;;10.84;100.00;100745.97;5120424;27;20031;-52
2023/05/11 05:36:49;;;;;;;3.95;0.50;;;;;;;10.87;100.00;100742.97;5119152;27;20109;-48
2023/05/11 05:39:15;;;;;;;4.93;0.88;;;;;;;10.87;100.00;100748.28;5117410;27;20255;-53
2023/05/11 05:41:41;;;;;;;4.70;0.95;;;;;;;10.88;100.00;100750.72;5124027;27;20118;-50
2023/05/11 05:44:06;;;;;;;4.47;1.85;;;;;;;10.90;100.00;100754.03;5121093;27;20080;-52
2023/05/11 05:46:32;;;;;;;1.58;0.70;;;;;;;10.89;100.00;100749.75;5117901;27;20110;-51
2023/05/11 05:48:57;;;;;;;2.30;1.15;;;;;;;10.89;100.00;100749.75;5105920;27;20055;-50
2023/05/11 05:51:22;;;;;;;2.25;0.40;;;;;;;10.88;100.00;100748.06;5121837;27;20035;-52
2023/05/11 05:53:48;;;;;;;2.45;1.85;;;;;;;10.90;100.00;100750.56;5116070;27;20042;-52
2023/05/11 05:56:13;;;;;;;5.43;1.05;;;;;;;10.98;100.00;100755.75;5106010;27;20040;-49
2023/05/11 05:58:39;;;;;;;2.28;0.43;;;;;;;11.01;100.00;100749.25;5113253;27;20058;-51
2023/05/11 06:01:04;;;;;;;1.70;0.68;;;;;;;11.16;100.00;100759.81;5109407;27;20024;-49
2023/05/11 06:03:30;;;;;;;1.65;0.60;;;;;;;11.25;100.00;100751.53;5119010;27;20027;-49
2023/05/11 06:05:55;;;;;;;6.10;1.20;;;;;;;11.39;100.00;100755.16;5102566;27;20401;-53
2023/05/11 06:08:20;;;;;;;5.03;0.57;;;;;;;11.59;100.00;100755.34;5109788;27;20084;-52
2023/05/11 06:10:46;;;;;;;2.45;1.05;;;;;;;11.69;100.00;100749.69;5118812;27;20531;-52
2023/05/11 06:13:11;;;;;;;4.30;0.85;;;;;;;11.76;100.00;100762.00;5118838;27;20034;-52
2023/05/11 06:15:36;;;;;;;3.75;1.08;;;;;;;11.86;100.00;100764.38;5101000;27;20034;-50
2023/05/11 06:18:02;;;;;;;5.97;1.88;;;;;;;12.00;100.00;100767.94;5118938;27;20031;-51
2023/05/11 06:20:27;;;;;;;4.78;1.25;;;;;;;12.12;100.00;100760.28;5118330;27;20505;-52
2023/05/11 06:22:52;;;;;;;5.10;2.05;;;;;;;12.23;100.00;100767.69;5121768;27;20492;-50
2023/05/11 06:25:18;;;;;;;21.33;2.83;;;;;;;12.27;100.00;100776.94;5118191;27;20031;-54
2023/05/11 06:27:44;;;;;;;11.80;2.10;;;;;;;12.37;100.00;100769.44;5117493;27;20087;-52
2023/05/11 06:30:10;;;;;;;10.25;2.25;;;;;;;12.58;100.00;100783.69;5114509;27;20039;-51
2023/05/11 06:32:35;;;;;;;7.38;1.85;;;;;;;12.78;100.00;100773.13;5111892;27;20019;-50
2023/05/11 06:35:01;;;;;;;3.35;1.83;;;;;;;12.94;100.00;100774.63;5120425;27;20023;-54
2023/05/11 06:37:28;;;;;;;9.60;2.15;;;;;;;12.97;100.00;100774.22;5123119;27;20027;-52
2023/05/11 06:39:54;;;;;;;8.50;1.48;;;;;;;12.95;100.00;100771.75;5117833;27;20056;-53
2023/05/11 06:42:22;;;;;;;9.07;2.97;;;;;;;12.97;100.00;100775.03;5120701;27;20031;-52
2023/05/11 06:44:47;;;;;;;2.35;2.05;;;;;;;13.08;100.00;100777.09;5122887;27;20296;-49
2023/05/11 06:47:12;;;;;;;6.53;1.40;;;;;;;13.17;100.00;100766.31;5115821;27;20076;-50
2023/05/11 06:49:38;;;;;;;7.20;2.70;;;;;;;13.28;100.00;100777.19;5128389;27;20502;-50
2023/05/11 06:52:03;;;;;;;3.38;2.83;;;;;;;13.35;100.00;100779.06;5121142;27;20023;-52
2023/05/11 06:54:28;;;;;;;7.18;1.67;;;;;;;13.53;100.00;100779.31;5122094;27;20023;-51
2023/05/11 06:56:54;;;;;;;5.00;1.55;;;;;;;13.73;100.00;100776.63;5117948;27;20031;-52
2023/05/11 06:59:19;;;;;;;8.57;2.58;;;;;;;13.89;100.00;100778.09;5122087;27;20019;-50
2023/05/11 07:01:45;;;;;;;6.82;2.60;;;;;;;13.98;100.00;100778.72;5129939;27;20035;-55
2023/05/11 07:04:10;;;;;;;13.55;2.53;;;;;;;14.05;100.00;100775.00;5117234;27;20043;-52
2023/05/11 07:06:36;;;;;;;18.05;3.53;;;;;;;14.16;100.00;100778.88;5119795;27;20391;-53
2023/05/11 07:09:02;;;;;;;4.15;2.15;;;;;;;14.38;100.00;100771.47;5124417;27;20358;-54
2023/05/11 07:11:29;;;;;;;3.83;2.13;;;;;;;14.58;100.00;100766.91;5125170;27;20507;-53
2023/05/11 07:13:54;;;;;;;5.32;2.25;;;;;;;14.71;100.00;100775.91;5114297;27;20143;-51
2023/05/11 07:16:20;;;;;;;3.53;1.92;;;;;;;14.71;100.00;100765.22;5114352;27;20042;-51
2023/05/11 07:18:45;;;;;;;2.75;1.80;;;;;;;14.90;100.00;100764.34;5112160;27;20066;-53
2023/05/11 07:21:10;;;;;;;16.60;2.20;;;;;;;15.01;100.00;100761.00;5112749;27;20046;-54
2023/05/11 07:23:36;;;;;;;5.53;1.30;;;;;;;15.12;100.00;100764.03;5115749;27;20016;-49
2023/05/11 07:26:07;;;;;;;5.13;1.95;;;;;;;15.21;100.00;100765.41;5119981;27;20066;-52
2023/05/11 07:28:32;;;;;;;5.57;2.72;;;;;;;15.31;100.00;100764.94;5103819;27;20062;-51
2023/05/11 07:30:58;;;;;;;6.68;0.98;;;;;;;15.52;100.00;100763.78;5124747;27;20059;-48
2023/05/11 07:33:23;;;;;;;5.93;2.25;;;;;;;15.61;100.00;100765.94;5109933;27;20023;-53
2023/05/11 07:35:50;;;;;;;4.03;1.20;;;;;;;15.68;100.00;100773.94;5112642;27;20619;-52
2023/05/11 07:38:16;;;;;;;2.90;1.30;;;;;;;15.75;100.00;100772.06;5117710;27;20066;-53
2023/05/11 07:40:41;;;;;;;2.05;1.27;;;;;;;15.80;100.00;100756.19;5121979;27;20074;-50
2023/05/11 07:43:06;;;;;;;4.55;1.17;;;;;;;16.03;100.00;100760.09;5115418;27;20034;-53
2023/05/11 07:45:32;;;;;;;4.80;0.43;;;;;;;16.13;100.00;100763.06;5119462;27;20060;-51
2023/05/11 07:47:57;;;;;;;3.35;0.50;;;;;;;16.30;100.00;100757.97;5125895;27;20031;-53
2023/05/11 07:50:22;;;;;;;4.03;1.58;;;;;;;16.50;100.00;100765.81;5117892;27;20027;-57
2023/05/11 07:52:47;;;;;;;1.73;0.22;;;;;;;16.54;100.00;100765.09;5125026;27;20118;-51
2023/05/11 07:55:13;;;;;;;2.75;0.65;;;;;;;16.66;100.00;100761.69;5119662;27;20035;-52
2023/05/11 07:57:39;;;;;;;4.10;1.42;;;;;;;16.68;100.00;100773.00;5119821;27;20035;-54
2023/05/11 08:00:06;;;;;;;0.90;0.40;;;;;;;16.77;100.00;100764.47;5115070;27;20210;-49
2023/05/11 08:02:31;;;;;;;6.93;0.38;;;;;;;17.06;100.00;100769.25;5118568;27;20062;-51
2023/05/11 08:04:57;;;;;;;1.50;0.68;;;;;;;17.40;100.00;100767.75;5120939;27;20031;-54
2023/05/11 08:07:22;;;;;;;1.70;0.50;;;;;;;17.42;100.00;100768.31;5122190;27;20055;-52
2023/05/11 08:09:47;;;;;;;5.57;1.52;;;;;;;17.38;100.00;100767.16;5114348;27;20035;-54
2023/05/11 08:12:14;;;;;;;1.70;0.43;;;;;;;17.41;100.00;100764.00;5117167;27;20031;-56
2023/05/11 08:14:41;;;;;;;1.73;0.93;;;;;;;17.11;100.00;100769.38;5116670;27;20488;-53
2023/05/11 08:17:07;;;;;;;2.15;0.95;;;;;;;17.10;100.00;100767.75;5121351;27;20610;-51
2023/05/11 08:19:32;;;;;;;3.20;1.00;;;;;;;17.43;100.00;100767.28;5120565;27;20098;-55
2023/05/11 08:21:58;;;;;;;2.78;0.30;;;;;;;17.80;100.00;100772.50;5110319;27;20165;-54
2023/05/11 08:24:23;;;;;;;6.28;1.17;;;;;;;17.55;100.00;100770.78;5114828;27;20488;-66
2023/05/11 08:26:48;;;;;;;2.22;0.30;;;;;;;17.31;100.00;100772.59;5115898;27;20067;-55
2023/05/11 08:29:14;;;;;;;11.48;1.63;;;;;;;17.52;100.00;100773.94;5122493;27;20730;-56
2023/05/11 08:31:39;;;;;;;3.20;0.10;;;;;;;17.75;100.00;100780.41;5113475;27;20065;-55
2023/05/11 08:34:07;;;;;;;6.38;0.35;;;;;;;18.09;100.00;100776.13;5119919;27;20037;-54
2023/05/11 08:36:32;;;;;;;2.33;0.30;;;;;;;18.12;100.00;100778.34;5106106;27;20027;-55
2023/05/11 08:38:58;;;;;;;2.78;0.20;;;;;;;18.24;100.00;100775.66;5113458;27;20084;-53
2023/05/11 08:41:23;;;;;;;4.78;0.43;;;;;;;18.25;100.00;100779.97;5111409;27;20678;-50
2023/05/11 08:43:48;;;;;;;2.78;0.85;;;;;;;18.16;100.00;100786.75;5112666;27;20080;-57
2023/05/11 08:46:19;;;;;;;1.08;0.17;;;;;;;18.26;100.00;100787.81;5123442;27;20055;-53
2023/05/11 08:48:45;;;;;;;2.63;0.40;;;;;;;18.39;100.00;100783.25;5104624;27;20054;-54
2023/05/11 08:51:10;;;;;;;1.88;0.77;;;;;;;18.49;100.00;100788.84;5094999;27;20040;-53
2023/05/11 08:53:36;;;;;;;4.00;1.00;;;;;;;18.65;100.00;100784.59;5087826;28;20035;-56
2023/05/11 08:56:05;;;;;;;6.35;0.63;;;;;;;18.37;100.00;100790.72;5118885;27;20415;-55
2023/05/11 08:58:33;;;;;;;1.88;1.00;;;;;;;18.38;100.00;100789.66;5117517;27;20027;-54
2023/05/11 09:00:58;;;;;;;0.93;0.25;;;;;;;18.51;100.00;100792.13;5112386;27;20036;-53
2023/05/11 09:03:27;;;;;;;1.77;0.30;;;;;;;18.56;100.00;100792.22;5124072;27;20791;-54
2023/05/11 09:05:53;;;;;;;7.05;1.65;;;;;;;18.46;100.00;100792.00;5114815;27;20023;-54
2023/05/11 09:08:19;;;;;;;1.42;0.52;;;;;;;18.78;100.00;100783.56;5119017;27;20037;-55
2023/05/11 09:10:44;;;;;;;2.53;0.30;;;;;;;19.04;100.00;100790.25;5110759;27;20441;-53
2023/05/11 09:13:10;;;;;;;1.20;0.38;;;;;;;18.82;100.00;100784.69;5093502;27;20038;-54
2023/05/11 09:15:35;;;;;;;3.25;0.30;;;;;;;18.79;100.00;100788.66;5118227;27;20110;-57
2023/05/11 09:18:02;;;;;;;1.10;0.43;;;;;;;18.58;100.00;100794.66;5117786;27;20491;-54
2023/05/11 09:20:30;;;;;;;3.85;0.52;;;;;;;18.66;100.00;100791.59;5114768;27;20111;-52
2023/05/11 09:22:57;;;;;;;3.55;0.98;;;;;;;18.78;100.00;100797.78;5107977;27;20042;-54
2023/05/11 09:25:23;;;;;;;8.38;0.70;;;;;;;18.78;100.00;100795.09;5110985;27;20027;-52
2023/05/11 09:27:49;;;;;;;3.78;0.28;;;;;;;19.01;100.00;100791.53;5113721;27;20019;-55
2023/05/11 09:30:16;;;;;;;1.48;0.10;;;;;;;18.95;100.00;100785.25;5114841;27;20054;-55
2023/05/11 09:32:52;;;;;;;6.53;1.00;;;;;;;19.14;100.00;100790.44;5109353;27;20107;-53
2023/05/11 09:35:20;;;;;;;2.65;0.22;;;;;;;19.40;100.00;100789.03;5118173;27;20023;-50
2023/05/11 09:38:09;;;;;;;4.22;0.05;;;;;;;20.02;100.00;100775.53;5118216;27;20031;-53
2023/05/11 09:40:49;;;;;;;2.65;0.05;;;;;;;20.73;100.00;100790.25;5111297;27;20067;-57
2023/05/11 09:43:29;;;;;;;1.77;0.20;;;;;;;21.08;100.00;100784.44;5113868;27;20047;-55
2023/05/11 09:45:56;;;;;;;1.58;0.08;;;;;;;20.97;100.00;100786.22;5108495;27;20039;-53
2023/05/11 09:48:28;;;;;;;1.00;0.40;;;;;;;21.27;100.00;100787.59;5127551;27;20081;-56
2023/05/11 09:51:06;;;;;;;1.52;0.10;;;;;;;21.36;97.98;100788.78;5116424;27;20028;-54
2023/05/11 09:53:44;;;;;;;0.85;0.00;;;;;;;20.94;93.26;100783.22;5114795;27;20115;-57
2023/05/11 09:56:14;;;;;;;0.20;0.00;;;;;;;20.63;100.00;100782.88;5119796;27;20031;-56
2023/05/11 09:58:50;;;;;;;0.22;0.00;;;;;;;20.66;100.00;100788.56;5112115;27;20027;-53
2023/05/11 10:01:17;;;;;;;0.20;0.03;;;;;;;20.77;100.00;100777.91;5117870;27;20079;-56
2023/05/11 10:03:47;;;;;;;2.58;0.03;;;;;;;20.75;100.00;100771.94;5121094;27;20061;-54
2023/05/11 10:06:12;;;;;;;0.25;0.00;;;;;;;20.93;100.00;100777.00;5123068;27;20031;-54
2023/05/11 10:08:38;;;;;;;0.68;0.00;;;;;;;20.81;100.00;100773.66;5121090;27;20050;-56
2023/05/11 10:11:05;;;;;;;0.80;0.20;;;;;;;20.69;100.00;100782.66;5118639;27;20027;-54
2023/05/11 10:13:32;;;;;;;3.20;0.17;;;;;;;20.54;100.00;100782.47;5122347;27;20045;-55
2023/05/11 10:16:01;;;;;;;2.92;0.88;;;;;;;20.19;100.00;100780.91;5109745;27;20028;-55
2023/05/11 10:18:27;;;;;;;1.15;0.10;;;;;;;20.10;100.00;100776.19;5122456;27;20046;-54
2023/05/11 10:20:54;;;;;;;0.82;0.10;;;;;;;20.34;100.00;100782.16;5114972;27;20532;-56
2023/05/11 10:23:20;;;;;;;0.45;0.00;;;;;;;20.73;100.00;100780.31;5111937;27;20055;-52
2023/05/11 10:25:46;;;;;;;0.20;0.00;;;;;;;21.16;100.00;100777.78;5119796;27;20110;-52
2023/05/11 10:28:12;;;;;;;3.10;0.00;;;;;;;21.27;100.00;100788.44;5120041;27;20030;-57
2023/05/11 10:30:38;;;;;;;0.30;0.00;;;;;;;20.87;100.00;100778.03;5120939;27;20384;-55
2023/05/11 10:33:05;;;;;;;3.47;1.50;;;;;;;20.30;100.00;100779.16;5114586;27;20701;-54
2023/05/11 10:35:31;;;;;;;0.95;0.10;;;;;;;19.94;100.00;100781.34;5126887;27;20251;-56
2023/05/11 10:37:57;;;;;;;2.33;0.28;;;;;;;19.91;100.00;100776.44;5118283;27;20182;-52
2023/05/11 10:40:23;;;;;;;1.65;0.08;;;;;;;20.08;100.00;100783.69;5124941;27;20495;-55
2023/05/11 10:42:48;;;;;;;1.20;0.00;;;;;;;20.33;100.00;100781.34;5118370;27;20111;-56
2023/05/11 10:45:17;;;;;;;0.13;0.10;;;;;;;20.37;100.00;100781.69;5119694;27;20079;-57
2023/05/11 10:47:55;;;;;;;2.75;0.20;;;;;;;20.37;100.00;100776.31;5123606;27;20277;-54
2023/05/11 10:50:39;;;;;;;2.50;0.13;;;;;;;20.63;100.00;100775.59;5124306;27;20042;-52
2023/05/11 10:53:23;;;;;;;1.70;0.10;;;;;;;20.41;100.00;100782.81;5112615;27;20039;-56
2023/05/11 10:56:15;;;;;;;0.05;0.05;;;;;;;20.21;98.30;100770.72;5119402;27;20102;-56
2023/05/11 10:59:02;;;;;;;0.10;0.10;;;;;;;20.39;100.00;100782.22;5118930;27;20092;-53
2023/05/11 11:01:42;;;;;;;0.10;0.00;;;;;;;20.04;99.20;100769.91;5117296;27;20023;-55
2023/05/11 11:04:09;;;;;;;1.33;0.20;;;;;;;19.82;100.00;100769.84;5108899;27;20031;-55
2023/05/11 11:06:45;;;;;;;0.93;0.00;;;;;;;19.95;99.19;100766.00;5101279;27;20026;-55
2023/05/11 11:09:13;;;;;;;1.95;0.05;;;;;;;19.93;100.00;100762.72;5119062;27;20062;-50
2023/05/11 11:11:41;;;;;;;2.38;0.10;;;;;;;19.83;99.30;100766.91;5122099;27;20064;-56
2023/05/11 11:14:08;;;;;;;0.20;0.00;;;;;;;19.81;98.35;100754.78;5118559;27;20027;-53
2023/05/11 11:16:35;;;;;;;0.95;0.00;;;;;;;19.89;97.33;100753.53;5118480;27;20039;-52
2023/05/11 11:19:29;;;;;;;0.35;0.00;;;;;;;19.96;93.61;100756.88;5120047;27;20023;-55